sensor_id;sensor_type;location;lat;lon;timestamp;P1;durP1;ratioP1;P2;durP2;ratioP2
5010;SDS011;2524;54.364;10.072;2023-03-23T00:01:25;17.50;;;15.73;;
5010;SDS011;2524;54.364;10.072;2023-03-23T00:03:54;15.63;;;14.17;;
5010;SDS011;2524;54.364;10.072;2023-03-23T00:06:24;17.20;;;15.40;;
5010;SDS011;2524;54.364;10.072;2023-03-23T00:08:52;15.07;;;13.60;;
5010;SDS011;2524;54.364;10.072;2023-03-23T00:11:25;15.43;;;12.60;;
5010;SDS011;2524;54.364;10.072;2023-03-23T00:13:54;15.53;;;13.93;;
5010;SDS011;2524;54.364;10.072;2023-03-23T00:16:22;17.20;;;15.30;;
5010;SDS011;2524;54.364;10.072;2023-03-23T00:19:04;16.43;;;14.70;;
5010;SDS011;2524;54.364;10.072;2023-03-23T00:21:32;18.70;;;15.80;;
5010;SDS011;2524;54.364;10.072;2023-03-23T00:24:04;17.03;;;15.27;;
5010;SDS011;2524;54.364;10.072;2023-03-23T00:26:44;14.67;;;13.33;;
5010;SDS011;2524;54.364;10.072;2023-03-23T00:29:12;16.30;;;14.23;;
5010;SDS011;2524;54.364;10.072;2023-03-23T00:31:43;16.00;;;14.40;;
5010;SDS011;2524;54.364;10.072;2023-03-23T00:34:13;16.70;;;14.47;;
5010;SDS011;2524;54.364;10.072;2023-03-23T00:36:44;13.80;;;12.50;;
5010;SDS011;2524;54.364;10.072;2023-03-23T00:39:14;14.97;;;13.57;;
5010;SDS011;2524;54.364;10.072;2023-03-23T00:41:41;11.80;;;10.70;;
5010;SDS011;2524;54.364;10.072;2023-03-23T00:44:08;12.77;;;11.57;;
5010;SDS011;2524;54.364;10.072;2023-03-23T00:46:33;14.77;;;13.27;;
5010;SDS011;2524;54.364;10.072;2023-03-23T00:48:59;14.53;;;13.13;;
5010;SDS011;2524;54.364;10.072;2023-03-23T00:51:25;13.00;;;11.80;;
5010;SDS011;2524;54.364;10.072;2023-03-23T00:53:50;12.60;;;11.30;;
5010;SDS011;2524;54.364;10.072;2023-03-23T00:56:16;16.03;;;14.43;;
5010;SDS011;2524;54.364;10.072;2023-03-23T00:58:42;13.60;;;11.30;;
5010;SDS011;2524;54.364;10.072;2023-03-23T01:01:08;12.97;;;11.67;;
5010;SDS011;2524;54.364;10.072;2023-03-23T01:03:34;11.27;;;10.30;;
5010;SDS011;2524;54.364;10.072;2023-03-23T01:06:05;12.43;;;11.13;;
5010;SDS011;2524;54.364;10.072;2023-03-23T01:08:33;12.37;;;11.07;;
5010;SDS011;2524;54.364;10.072;2023-03-23T01:11:05;13.17;;;11.90;;
5010;SDS011;2524;54.364;10.072;2023-03-23T01:13:31;11.70;;;10.70;;
5010;SDS011;2524;54.364;10.072;2023-03-23T01:15:57;11.23;;;10.23;;
5010;SDS011;2524;54.364;10.072;2023-03-23T01:18:23;13.33;;;11.93;;
5010;SDS011;2524;54.364;10.072;2023-03-23T01:20:49;12.13;;;10.93;;
5010;SDS011;2524;54.364;10.072;2023-03-23T01:23:14;11.00;;;9.90;;
5010;SDS011;2524;54.364;10.072;2023-03-23T01:25:40;14.90;;;13.47;;
5010;SDS011;2524;54.364;10.072;2023-03-23T01:28:06;13.70;;;12.40;;
5010;SDS011;2524;54.364;10.072;2023-03-23T01:30:31;14.27;;;12.77;;
5010;SDS011;2524;54.364;10.072;2023-03-23T01:32:57;12.67;;;11.47;;
5010;SDS011;2524;54.364;10.072;2023-03-23T01:35:22;14.07;;;12.60;;
5010;SDS011;2524;54.364;10.072;2023-03-23T01:37:48;13.07;;;11.67;;
5010;SDS011;2524;54.364;10.072;2023-03-23T01:40:14;12.63;;;11.40;;
5010;SDS011;2524;54.364;10.072;2023-03-23T01:42:40;11.83;;;10.77;;
5010;SDS011;2524;54.364;10.072;2023-03-23T01:48:01;10.00;;;9.10;;
5010;SDS011;2524;54.364;10.072;2023-03-23T01:53:16;8.40;;;7.70;;
5010;SDS011;2524;54.364;10.072;2023-03-23T01:55:43;7.37;;;6.77;;
5010;SDS011;2524;54.364;10.072;2023-03-23T01:58:13;8.40;;;7.70;;
5010;SDS011;2524;54.364;10.072;2023-03-23T02:00:40;6.50;;;6.00;;
5010;SDS011;2524;54.364;10.072;2023-03-23T02:03:08;7.10;;;6.60;;
5010;SDS011;2524;54.364;10.072;2023-03-23T02:05:36;6.43;;;5.83;;
5010;SDS011;2524;54.364;10.072;2023-03-23T02:08:04;5.60;;;5.20;;
5010;SDS011;2524;54.364;10.072;2023-03-23T02:10:32;5.30;;;4.80;;
5010;SDS011;2524;54.364;10.072;2023-03-23T02:12:58;4.20;;;3.90;;
5010;SDS011;2524;54.364;10.072;2023-03-23T02:15:49;4.60;;;4.30;;
5010;SDS011;2524;54.364;10.072;2023-03-23T02:18:29;5.83;;;5.43;;
5010;SDS011;2524;54.364;10.072;2023-03-23T02:35:11;5.00;;;4.60;;
5010;SDS011;2524;54.364;10.072;2023-03-23T02:40:33;4.73;;;4.43;;
5010;SDS011;2524;54.364;10.072;2023-03-23T02:43:11;3.40;;;3.20;;
5010;SDS011;2524;54.364;10.072;2023-03-23T02:45:43;3.47;;;3.37;;
5010;SDS011;2524;54.364;10.072;2023-03-23T02:48:10;3.60;;;3.40;;
5010;SDS011;2524;54.364;10.072;2023-03-23T02:50:40;3.97;;;3.77;;
5010;SDS011;2524;54.364;10.072;2023-03-23T02:53:10;4.40;;;4.20;;
5010;SDS011;2524;54.364;10.072;2023-03-23T02:55:38;5.70;;;5.30;;
5010;SDS011;2524;54.364;10.072;2023-03-23T02:58:08;6.20;;;5.70;;
5010;SDS011;2524;54.364;10.072;2023-03-23T03:00:34;4.97;;;4.70;;
5010;SDS011;2524;54.364;10.072;2023-03-23T03:03:00;7.40;;;6.80;;
5010;SDS011;2524;54.364;10.072;2023-03-23T03:05:34;5.90;;;5.50;;
5010;SDS011;2524;54.364;10.072;2023-03-23T03:11:07;5.60;;;5.30;;
5010;SDS011;2524;54.364;10.072;2023-03-23T03:13:43;7.03;;;6.53;;
5010;SDS011;2524;54.364;10.072;2023-03-23T03:19:26;4.30;;;4.10;;
5010;SDS011;2524;54.364;10.072;2023-03-23T03:21:59;4.17;;;3.97;;
5010;SDS011;2524;54.364;10.072;2023-03-23T03:24:26;3.97;;;3.77;;
5010;SDS011;2524;54.364;10.072;2023-03-23T03:26:54;4.60;;;4.30;;
5010;SDS011;2524;54.364;10.072;2023-03-23T03:29:29;4.33;;;4.07;;
5010;SDS011;2524;54.364;10.072;2023-03-23T03:32:00;6.40;;;5.90;;
5010;SDS011;2524;54.364;10.072;2023-03-23T03:34:33;5.00;;;4.70;;
5010;SDS011;2524;54.364;10.072;2023-03-23T03:36:59;5.00;;;4.73;;
5010;SDS011;2524;54.364;10.072;2023-03-23T03:39:25;5.87;;;5.47;;
5010;SDS011;2524;54.364;10.072;2023-03-23T03:41:52;4.90;;;4.60;;
5010;SDS011;2524;54.364;10.072;2023-03-23T03:44:19;5.90;;;5.40;;
5010;SDS011;2524;54.364;10.072;2023-03-23T03:46:44;5.40;;;5.00;;
5010;SDS011;2524;54.364;10.072;2023-03-23T03:49:10;5.43;;;5.03;;
5010;SDS011;2524;54.364;10.072;2023-03-23T03:51:37;4.33;;;4.13;;
5010;SDS011;2524;54.364;10.072;2023-03-23T03:54:05;3.73;;;3.60;;
5010;SDS011;2524;54.364;10.072;2023-03-23T03:56:31;4.03;;;3.67;;
5010;SDS011;2524;54.364;10.072;2023-03-23T03:59:00;5.07;;;4.67;;
5010;SDS011;2524;54.364;10.072;2023-03-23T04:01:27;5.50;;;5.10;;
5010;SDS011;2524;54.364;10.072;2023-03-23T04:03:53;3.90;;;3.70;;
5010;SDS011;2524;54.364;10.072;2023-03-23T04:06:20;4.60;;;4.30;;
5010;SDS011;2524;54.364;10.072;2023-03-23T04:08:46;4.10;;;3.80;;
5010;SDS011;2524;54.364;10.072;2023-03-23T04:11:13;3.43;;;3.30;;
5010;SDS011;2524;54.364;10.072;2023-03-23T04:13:39;3.20;;;3.10;;
5010;SDS011;2524;54.364;10.072;2023-03-23T04:16:05;3.80;;;3.50;;
5010;SDS011;2524;54.364;10.072;2023-03-23T04:18:32;3.83;;;3.63;;
5010;SDS011;2524;54.364;10.072;2023-03-23T04:21:00;3.83;;;3.60;;
5010;SDS011;2524;54.364;10.072;2023-03-23T04:23:27;4.20;;;3.83;;
5010;SDS011;2524;54.364;10.072;2023-03-23T04:25:55;3.70;;;3.50;;
5010;SDS011;2524;54.364;10.072;2023-03-23T04:28:22;3.07;;;2.97;;
5010;SDS011;2524;54.364;10.072;2023-03-23T04:30:50;2.30;;;2.30;;
5010;SDS011;2524;54.364;10.072;2023-03-23T04:33:20;2.90;;;2.50;;
5010;SDS011;2524;54.364;10.072;2023-03-23T04:35:47;2.00;;;2.00;;
5010;SDS011;2524;54.364;10.072;2023-03-23T04:38:14;2.70;;;2.50;;
5010;SDS011;2524;54.364;10.072;2023-03-23T04:40:41;2.50;;;2.30;;
5010;SDS011;2524;54.364;10.072;2023-03-23T04:43:09;2.37;;;2.20;;
5010;SDS011;2524;54.364;10.072;2023-03-23T04:45:37;2.47;;;2.37;;
5010;SDS011;2524;54.364;10.072;2023-03-23T04:48:06;2.80;;;2.60;;
5010;SDS011;2524;54.364;10.072;2023-03-23T04:50:33;2.17;;;2.07;;
5010;SDS011;2524;54.364;10.072;2023-03-23T04:52:59;2.03;;;1.93;;
5010;SDS011;2524;54.364;10.072;2023-03-23T04:55:29;2.77;;;2.40;;
5010;SDS011;2524;54.364;10.072;2023-03-23T04:57:56;2.27;;;2.17;;
5010;SDS011;2524;54.364;10.072;2023-03-23T05:00:26;3.03;;;2.07;;
5010;SDS011;2524;54.364;10.072;2023-03-23T05:02:52;2.03;;;1.93;;
5010;SDS011;2524;54.364;10.072;2023-03-23T05:05:20;2.00;;;1.90;;
5010;SDS011;2524;54.364;10.072;2023-03-23T05:07:48;1.40;;;1.40;;
5010;SDS011;2524;54.364;10.072;2023-03-23T05:10:14;1.83;;;1.73;;
5010;SDS011;2524;54.364;10.072;2023-03-23T05:12:40;1.40;;;1.40;;
5010;SDS011;2524;54.364;10.072;2023-03-23T05:15:07;1.40;;;1.40;;
5010;SDS011;2524;54.364;10.072;2023-03-23T05:17:33;1.40;;;1.40;;
5010;SDS011;2524;54.364;10.072;2023-03-23T05:20:00;1.80;;;1.40;;
5010;SDS011;2524;54.364;10.072;2023-03-23T05:22:26;1.60;;;1.60;;
5010;SDS011;2524;54.364;10.072;2023-03-23T05:24:52;1.53;;;1.53;;
5010;SDS011;2524;54.364;10.072;2023-03-23T05:27:19;1.97;;;1.87;;
5010;SDS011;2524;54.364;10.072;2023-03-23T05:29:45;3.10;;;3.00;;
5010;SDS011;2524;54.364;10.072;2023-03-23T05:32:13;3.20;;;3.10;;
5010;SDS011;2524;54.364;10.072;2023-03-23T05:34:40;2.97;;;2.87;;
5010;SDS011;2524;54.364;10.072;2023-03-23T05:37:08;3.20;;;3.00;;
5010;SDS011;2524;54.364;10.072;2023-03-23T05:39:34;5.63;;;5.10;;
5010;SDS011;2524;54.364;10.072;2023-03-23T05:42:01;4.40;;;4.10;;
5010;SDS011;2524;54.364;10.072;2023-03-23T05:44:27;4.77;;;4.57;;
5010;SDS011;2524;54.364;10.072;2023-03-23T05:46:54;8.43;;;7.73;;
5010;SDS011;2524;54.364;10.072;2023-03-23T05:49:19;6.83;;;6.33;;
5010;SDS011;2524;54.364;10.072;2023-03-23T05:51:45;8.07;;;7.37;;
5010;SDS011;2524;54.364;10.072;2023-03-23T05:54:11;12.33;;;11.13;;
5010;SDS011;2524;54.364;10.072;2023-03-23T05:56:39;10.03;;;9.23;;
5010;SDS011;2524;54.364;10.072;2023-03-23T05:59:05;14.03;;;12.47;;
5010;SDS011;2524;54.364;10.072;2023-03-23T06:01:31;12.40;;;11.10;;
5010;SDS011;2524;54.364;10.072;2023-03-23T06:03:56;13.17;;;11.87;;
5010;SDS011;2524;54.364;10.072;2023-03-23T06:06:23;13.90;;;12.60;;
5010;SDS011;2524;54.364;10.072;2023-03-23T06:08:49;12.37;;;11.37;;
5010;SDS011;2524;54.364;10.072;2023-03-23T06:11:15;15.00;;;13.47;;
5010;SDS011;2524;54.364;10.072;2023-03-23T06:13:42;18.07;;;16.27;;
5010;SDS011;2524;54.364;10.072;2023-03-23T06:16:08;15.57;;;13.13;;
5010;SDS011;2524;54.364;10.072;2023-03-23T06:18:34;19.77;;;17.30;;
5010;SDS011;2524;54.364;10.072;2023-03-23T06:21:02;15.57;;;13.90;;
5010;SDS011;2524;54.364;10.072;2023-03-23T06:23:28;16.53;;;14.80;;
5010;SDS011;2524;54.364;10.072;2023-03-23T06:25:55;14.73;;;13.13;;
5010;SDS011;2524;54.364;10.072;2023-03-23T06:28:23;16.43;;;14.83;;
5010;SDS011;2524;54.364;10.072;2023-03-23T06:30:49;17.60;;;15.90;;
5010;SDS011;2524;54.364;10.072;2023-03-23T06:33:15;18.17;;;16.23;;
5010;SDS011;2524;54.364;10.072;2023-03-23T06:35:42;16.30;;;14.70;;
5010;SDS011;2524;54.364;10.072;2023-03-23T06:38:08;13.53;;;12.30;;
5010;SDS011;2524;54.364;10.072;2023-03-23T06:40:34;15.17;;;13.70;;
5010;SDS011;2524;54.364;10.072;2023-03-23T06:43:01;21.23;;;17.63;;
5010;SDS011;2524;54.364;10.072;2023-03-23T06:45:26;15.53;;;14.13;;
5010;SDS011;2524;54.364;10.072;2023-03-23T06:47:52;14.63;;;13.20;;
5010;SDS011;2524;54.364;10.072;2023-03-23T06:50:18;18.23;;;15.33;;
5010;SDS011;2524;54.364;10.072;2023-03-23T06:52:47;14.90;;;13.40;;
5010;SDS011;2524;54.364;10.072;2023-03-23T06:55:14;15.43;;;13.70;;
5010;SDS011;2524;54.364;10.072;2023-03-23T06:57:40;15.67;;;14.17;;
5010;SDS011;2524;54.364;10.072;2023-03-23T07:00:07;17.80;;;15.10;;
5010;SDS011;2524;54.364;10.072;2023-03-23T07:02:38;15.20;;;13.60;;
5010;SDS011;2524;54.364;10.072;2023-03-23T07:05:05;18.23;;;15.23;;
5010;SDS011;2524;54.364;10.072;2023-03-23T07:07:32;16.47;;;14.57;;
5010;SDS011;2524;54.364;10.072;2023-03-23T07:09:57;15.33;;;13.80;;
5010;SDS011;2524;54.364;10.072;2023-03-23T07:12:23;12.60;;;11.30;;
5010;SDS011;2524;54.364;10.072;2023-03-23T07:14:49;11.37;;;10.37;;
5010;SDS011;2524;54.364;10.072;2023-03-23T07:17:15;9.83;;;9.03;;
5010;SDS011;2524;54.364;10.072;2023-03-23T07:19:41;13.37;;;11.17;;
5010;SDS011;2524;54.364;10.072;2023-03-23T07:22:07;11.43;;;10.23;;
5010;SDS011;2524;54.364;10.072;2023-03-23T07:24:33;11.43;;;9.97;;
5010;SDS011;2524;54.364;10.072;2023-03-23T07:26:59;15.00;;;9.07;;
5010;SDS011;2524;54.364;10.072;2023-03-23T07:29:25;9.27;;;8.07;;
5010;SDS011;2524;54.364;10.072;2023-03-23T07:31:52;7.70;;;7.00;;
5010;SDS011;2524;54.364;10.072;2023-03-23T07:34:18;6.40;;;5.30;;
5010;SDS011;2524;54.364;10.072;2023-03-23T07:36:44;6.53;;;6.07;;
5010;SDS011;2524;54.364;10.072;2023-03-23T07:39:10;6.60;;;6.13;;
5010;SDS011;2524;54.364;10.072;2023-03-23T07:41:37;7.10;;;6.50;;
5010;SDS011;2524;54.364;10.072;2023-03-23T07:44:03;8.83;;;8.13;;
5010;SDS011;2524;54.364;10.072;2023-03-23T07:46:29;8.97;;;8.07;;
5010;SDS011;2524;54.364;10.072;2023-03-23T07:48:54;8.70;;;7.90;;
5010;SDS011;2524;54.364;10.072;2023-03-23T07:51:21;10.13;;;8.00;;
5010;SDS011;2524;54.364;10.072;2023-03-23T07:53:47;7.77;;;7.07;;
5010;SDS011;2524;54.364;10.072;2023-03-23T07:56:14;7.27;;;6.30;;
5010;SDS011;2524;54.364;10.072;2023-03-23T07:58:44;7.17;;;6.00;;
5010;SDS011;2524;54.364;10.072;2023-03-23T08:01:13;6.07;;;5.37;;
5010;SDS011;2524;54.364;10.072;2023-03-23T08:03:38;4.77;;;4.43;;
5010;SDS011;2524;54.364;10.072;2023-03-23T08:06:04;6.33;;;4.33;;
5010;SDS011;2524;54.364;10.072;2023-03-23T08:08:30;4.87;;;4.57;;
5010;SDS011;2524;54.364;10.072;2023-03-23T08:10:57;5.13;;;4.37;;
5010;SDS011;2524;54.364;10.072;2023-03-23T08:13:22;4.60;;;4.30;;
5010;SDS011;2524;54.364;10.072;2023-03-23T08:15:49;5.63;;;3.67;;
5010;SDS011;2524;54.364;10.072;2023-03-23T08:18:15;4.10;;;3.70;;
5010;SDS011;2524;54.364;10.072;2023-03-23T08:20:40;4.30;;;3.30;;
5010;SDS011;2524;54.364;10.072;2023-03-23T08:23:07;9.23;;;3.60;;
5010;SDS011;2524;54.364;10.072;2023-03-23T08:25:32;3.43;;;3.10;;
5010;SDS011;2524;54.364;10.072;2023-03-23T08:27:59;6.70;;;3.77;;
5010;SDS011;2524;54.364;10.072;2023-03-23T08:30:26;6.13;;;3.20;;
5010;SDS011;2524;54.364;10.072;2023-03-23T08:32:55;3.83;;;2.90;;
5010;SDS011;2524;54.364;10.072;2023-03-23T08:35:21;9.27;;;3.13;;
5010;SDS011;2524;54.364;10.072;2023-03-23T08:37:47;5.70;;;2.50;;
5010;SDS011;2524;54.364;10.072;2023-03-23T08:40:16;3.87;;;2.40;;
5010;SDS011;2524;54.364;10.072;2023-03-23T08:42:44;6.13;;;2.47;;
5010;SDS011;2524;54.364;10.072;2023-03-23T08:45:13;8.80;;;3.10;;
5010;SDS011;2524;54.364;10.072;2023-03-23T08:47:41;5.90;;;2.57;;
5010;SDS011;2524;54.364;10.072;2023-03-23T08:50:08;8.77;;;2.83;;
5010;SDS011;2524;54.364;10.072;2023-03-23T08:52:37;5.93;;;2.00;;
5010;SDS011;2524;54.364;10.072;2023-03-23T08:55:03;3.37;;;2.10;;
5010;SDS011;2524;54.364;10.072;2023-03-23T08:57:30;8.80;;;2.63;;
5010;SDS011;2524;54.364;10.072;2023-03-23T08:59:56;8.53;;;2.27;;
5010;SDS011;2524;54.364;10.072;2023-03-23T09:02:28;5.20;;;2.13;;
5010;SDS011;2524;54.364;10.072;2023-03-23T09:04:55;4.43;;;2.03;;
5010;SDS011;2524;54.364;10.072;2023-03-23T09:07:21;8.37;;;2.90;;
5010;SDS011;2524;54.364;10.072;2023-03-23T09:09:47;5.60;;;2.40;;
5010;SDS011;2524;54.364;10.072;2023-03-23T09:12:13;6.20;;;2.07;;
5010;SDS011;2524;54.364;10.072;2023-03-23T09:14:38;6.77;;;2.70;;
5010;SDS011;2524;54.364;10.072;2023-03-23T09:17:04;9.20;;;2.80;;
5010;SDS011;2524;54.364;10.072;2023-03-23T09:19:30;6.77;;;2.47;;
5010;SDS011;2524;54.364;10.072;2023-03-23T09:21:58;6.43;;;2.57;;
5010;SDS011;2524;54.364;10.072;2023-03-23T09:24:24;6.27;;;2.90;;
5010;SDS011;2524;54.364;10.072;2023-03-23T09:26:50;3.50;;;2.20;;
5010;SDS011;2524;54.364;10.072;2023-03-23T09:29:15;7.20;;;2.73;;
5010;SDS011;2524;54.364;10.072;2023-03-23T09:31:41;8.13;;;2.73;;
5010;SDS011;2524;54.364;10.072;2023-03-23T09:34:08;6.10;;;2.40;;
5010;SDS011;2524;54.364;10.072;2023-03-23T09:36:36;2.43;;;2.20;;
5010;SDS011;2524;54.364;10.072;2023-03-23T09:39:03;6.70;;;3.20;;
5010;SDS011;2524;54.364;10.072;2023-03-23T09:44:23;4.57;;;2.17;;
5010;SDS011;2524;54.364;10.072;2023-03-23T09:49:35;8.20;;;2.80;;
5010;SDS011;2524;54.364;10.072;2023-03-23T09:52:10;8.90;;;3.17;;
5010;SDS011;2524;54.364;10.072;2023-03-23T09:54:40;8.60;;;3.00;;
5010;SDS011;2524;54.364;10.072;2023-03-23T09:57:34;9.27;;;2.90;;
5010;SDS011;2524;54.364;10.072;2023-03-23T10:08:11;6.70;;;2.57;;
5010;SDS011;2524;54.364;10.072;2023-03-23T10:13:16;10.23;;;2.97;;
5010;SDS011;2524;54.364;10.072;2023-03-23T10:15:49;8.90;;;2.70;;
5010;SDS011;2524;54.364;10.072;2023-03-23T10:18:27;8.80;;;2.37;;
5010;SDS011;2524;54.364;10.072;2023-03-23T10:21:01;5.23;;;2.27;;
5010;SDS011;2524;54.364;10.072;2023-03-23T10:28:58;10.03;;;2.93;;
5010;SDS011;2524;54.364;10.072;2023-03-23T10:31:35;8.60;;;2.60;;
5010;SDS011;2524;54.364;10.072;2023-03-23T10:34:10;3.77;;;2.07;;
5010;SDS011;2524;54.364;10.072;2023-03-23T10:36:51;8.60;;;3.37;;
5010;SDS011;2524;54.364;10.072;2023-03-23T10:39:24;5.33;;;2.77;;
5010;SDS011;2524;54.364;10.072;2023-03-23T10:41:55;7.37;;;2.77;;
5010;SDS011;2524;54.364;10.072;2023-03-23T10:44:21;8.23;;;2.87;;
5010;SDS011;2524;54.364;10.072;2023-03-23T10:47:02;10.20;;;2.63;;
5010;SDS011;2524;54.364;10.072;2023-03-23T10:49:36;5.00;;;2.47;;
5010;SDS011;2524;54.364;10.072;2023-03-23T10:52:30;5.97;;;2.07;;
5010;SDS011;2524;54.364;10.072;2023-03-23T10:57:35;10.40;;;2.70;;
5010;SDS011;2524;54.364;10.072;2023-03-23T11:00:19;6.73;;;2.70;;
5010;SDS011;2524;54.364;10.072;2023-03-23T11:02:57;5.80;;;2.70;;
5010;SDS011;2524;54.364;10.072;2023-03-23T11:05:40;7.60;;;2.40;;
5010;SDS011;2524;54.364;10.072;2023-03-23T11:08:13;6.87;;;2.67;;
5010;SDS011;2524;54.364;10.072;2023-03-23T11:13:19;5.60;;;2.27;;
5010;SDS011;2524;54.364;10.072;2023-03-23T11:15:47;5.87;;;2.30;;
5010;SDS011;2524;54.364;10.072;2023-03-23T11:18:21;8.23;;;2.50;;
5010;SDS011;2524;54.364;10.072;2023-03-23T11:20:49;11.23;;;2.67;;
5010;SDS011;2524;54.364;10.072;2023-03-23T11:23:33;10.30;;;2.63;;
5010;SDS011;2524;54.364;10.072;2023-03-23T11:29:02;5.67;;;2.00;;
5010;SDS011;2524;54.364;10.072;2023-03-23T11:31:41;6.27;;;2.30;;
5010;SDS011;2524;54.364;10.072;2023-03-23T11:34:20;9.63;;;2.43;;
5010;SDS011;2524;54.364;10.072;2023-03-23T11:36:53;11.17;;;3.10;;
5010;SDS011;2524;54.364;10.072;2023-03-23T11:41:54;8.73;;;2.73;;
5010;SDS011;2524;54.364;10.072;2023-03-23T11:44:23;8.50;;;2.43;;
5010;SDS011;2524;54.364;10.072;2023-03-23T11:55:11;9.00;;;2.60;;
5010;SDS011;2524;54.364;10.072;2023-03-23T11:57:40;6.23;;;2.40;;
5010;SDS011;2524;54.364;10.072;2023-03-23T12:00:24;8.90;;;2.40;;
5010;SDS011;2524;54.364;10.072;2023-03-23T12:11:07;14.20;;;2.87;;
5010;SDS011;2524;54.364;10.072;2023-03-23T12:19:10;9.67;;;2.90;;
5010;SDS011;2524;54.364;10.072;2023-03-23T12:43:20;10.00;;;3.23;;
5010;SDS011;2524;54.364;10.072;2023-03-23T12:46:12;13.93;;;3.70;;
5010;SDS011;2524;54.364;10.072;2023-03-23T12:48:52;12.37;;;3.67;;
5010;SDS011;2524;54.364;10.072;2023-03-23T12:51:30;8.73;;;3.20;;
5010;SDS011;2524;54.364;10.072;2023-03-23T12:59:43;10.13;;;3.90;;
5010;SDS011;2524;54.364;10.072;2023-03-23T13:02:29;10.20;;;3.23;;
5010;SDS011;2524;54.364;10.072;2023-03-23T13:05:07;12.07;;;3.30;;
5010;SDS011;2524;54.364;10.072;2023-03-23T13:07:43;13.87;;;4.23;;
5010;SDS011;2524;54.364;10.072;2023-03-23T13:10:20;10.10;;;3.40;;
5010;SDS011;2524;54.364;10.072;2023-03-23T13:12:50;10.90;;;3.70;;
5010;SDS011;2524;54.364;10.072;2023-03-23T13:23:58;14.40;;;4.13;;
5010;SDS011;2524;54.364;10.072;2023-03-23T13:26:29;13.83;;;3.63;;
5010;SDS011;2524;54.364;10.072;2023-03-23T13:28:57;16.17;;;4.37;;
5010;SDS011;2524;54.364;10.072;2023-03-23T13:31:35;14.23;;;3.90;;
5010;SDS011;2524;54.364;10.072;2023-03-23T13:34:03;7.87;;;3.27;;
5010;SDS011;2524;54.364;10.072;2023-03-23T13:36:36;19.87;;;4.40;;
5010;SDS011;2524;54.364;10.072;2023-03-23T13:39:06;20.43;;;5.70;;
5010;SDS011;2524;54.364;10.072;2023-03-23T13:41:58;15.77;;;4.53;;
5010;SDS011;2524;54.364;10.072;2023-03-23T13:49:57;12.40;;;3.70;;
5010;SDS011;2524;54.364;10.072;2023-03-23T13:57:54;23.33;;;5.03;;
5010;SDS011;2524;54.364;10.072;2023-03-23T14:03:02;9.07;;;3.30;;
5010;SDS011;2524;54.364;10.072;2023-03-23T14:05:34;14.13;;;3.47;;
5010;SDS011;2524;54.364;10.072;2023-03-23T14:10:52;9.57;;;3.17;;
5010;SDS011;2524;54.364;10.072;2023-03-23T14:13:43;16.70;;;4.03;;
5010;SDS011;2524;54.364;10.072;2023-03-23T14:16:16;13.33;;;3.97;;
5010;SDS011;2524;54.364;10.072;2023-03-23T14:18:57;11.67;;;4.07;;
5010;SDS011;2524;54.364;10.072;2023-03-23T14:21:30;19.67;;;4.63;;
5010;SDS011;2524;54.364;10.072;2023-03-23T14:23:59;23.80;;;4.23;;
5010;SDS011;2524;54.364;10.072;2023-03-23T14:26:26;21.73;;;4.70;;
5010;SDS011;2524;54.364;10.072;2023-03-23T14:28:52;12.40;;;3.80;;
5010;SDS011;2524;54.364;10.072;2023-03-23T14:31:20;12.03;;;4.10;;
5010;SDS011;2524;54.364;10.072;2023-03-23T14:33:47;10.20;;;3.43;;
5010;SDS011;2524;54.364;10.072;2023-03-23T14:36:19;15.47;;;3.47;;
5010;SDS011;2524;54.364;10.072;2023-03-23T14:38:46;11.13;;;3.37;;
5010;SDS011;2524;54.364;10.072;2023-03-23T14:41:13;13.00;;;4.03;;
5010;SDS011;2524;54.364;10.072;2023-03-23T14:43:38;15.47;;;4.37;;
5010;SDS011;2524;54.364;10.072;2023-03-23T14:46:06;12.00;;;3.67;;
5010;SDS011;2524;54.364;10.072;2023-03-23T14:48:34;15.07;;;4.20;;
5010;SDS011;2524;54.364;10.072;2023-03-23T14:51:01;14.53;;;4.13;;
5010;SDS011;2524;54.364;10.072;2023-03-23T14:53:37;12.77;;;3.40;;
5010;SDS011;2524;54.364;10.072;2023-03-23T14:56:37;14.47;;;4.03;;
5010;SDS011;2524;54.364;10.072;2023-03-23T14:59:04;14.90;;;3.67;;
5010;SDS011;2524;54.364;10.072;2023-03-23T15:01:33;14.30;;;4.10;;
5010;SDS011;2524;54.364;10.072;2023-03-23T15:04:15;17.17;;;4.27;;
5010;SDS011;2524;54.364;10.072;2023-03-23T15:06:44;15.33;;;4.20;;
5010;SDS011;2524;54.364;10.072;2023-03-23T15:09:17;12.90;;;4.27;;
5010;SDS011;2524;54.364;10.072;2023-03-23T15:11:53;7.17;;;2.97;;
5010;SDS011;2524;54.364;10.072;2023-03-23T15:14:21;13.13;;;3.47;;
5010;SDS011;2524;54.364;10.072;2023-03-23T15:16:53;12.93;;;3.80;;
5010;SDS011;2524;54.364;10.072;2023-03-23T15:19:28;13.53;;;4.20;;
5010;SDS011;2524;54.364;10.072;2023-03-23T15:25:09;17.17;;;4.67;;
5010;SDS011;2524;54.364;10.072;2023-03-23T15:27:40;18.10;;;4.60;;
5010;SDS011;2524;54.364;10.072;2023-03-23T15:32:44;6.77;;;2.83;;
5010;SDS011;2524;54.364;10.072;2023-03-23T15:35:13;9.00;;;3.50;;
5010;SDS011;2524;54.364;10.072;2023-03-23T15:37:42;13.13;;;3.50;;
5010;SDS011;2524;54.364;10.072;2023-03-23T15:40:15;13.90;;;4.00;;
5010;SDS011;2524;54.364;10.072;2023-03-23T15:42:46;11.30;;;4.07;;
5010;SDS011;2524;54.364;10.072;2023-03-23T15:47:44;18.17;;;5.10;;
5010;SDS011;2524;54.364;10.072;2023-03-23T15:50:18;11.17;;;3.83;;
5010;SDS011;2524;54.364;10.072;2023-03-23T15:52:56;15.30;;;4.27;;
5010;SDS011;2524;54.364;10.072;2023-03-23T15:57:53;13.23;;;4.27;;
5010;SDS011;2524;54.364;10.072;2023-03-23T16:00:20;12.80;;;3.63;;
5010;SDS011;2524;54.364;10.072;2023-03-23T16:02:49;17.43;;;4.47;;
5010;SDS011;2524;54.364;10.072;2023-03-23T16:05:19;11.20;;;3.90;;
5010;SDS011;2524;54.364;10.072;2023-03-23T16:07:45;8.23;;;3.20;;
5010;SDS011;2524;54.364;10.072;2023-03-23T16:10:18;16.53;;;3.80;;
5010;SDS011;2524;54.364;10.072;2023-03-23T16:12:45;11.00;;;3.60;;
5010;SDS011;2524;54.364;10.072;2023-03-23T16:15:12;7.80;;;3.00;;
5010;SDS011;2524;54.364;10.072;2023-03-23T16:17:38;11.63;;;3.97;;
5010;SDS011;2524;54.364;10.072;2023-03-23T16:20:09;11.30;;;3.57;;
5010;SDS011;2524;54.364;10.072;2023-03-23T16:22:38;19.00;;;3.40;;
5010;SDS011;2524;54.364;10.072;2023-03-23T16:25:05;11.17;;;3.37;;
5010;SDS011;2524;54.364;10.072;2023-03-23T16:27:31;6.30;;;2.70;;
5010;SDS011;2524;54.364;10.072;2023-03-23T16:29:57;10.30;;;3.07;;
5010;SDS011;2524;54.364;10.072;2023-03-23T16:32:24;20.23;;;4.43;;
5010;SDS011;2524;54.364;10.072;2023-03-23T16:34:50;17.93;;;4.60;;
5010;SDS011;2524;54.364;10.072;2023-03-23T16:37:16;17.73;;;4.63;;
5010;SDS011;2524;54.364;10.072;2023-03-23T16:39:42;8.57;;;2.83;;
5010;SDS011;2524;54.364;10.072;2023-03-23T16:42:07;7.70;;;3.00;;
5010;SDS011;2524;54.364;10.072;2023-03-23T16:44:33;11.27;;;3.27;;
5010;SDS011;2524;54.364;10.072;2023-03-23T16:46:59;8.53;;;3.13;;
5010;SDS011;2524;54.364;10.072;2023-03-23T16:49:25;10.47;;;3.23;;
5010;SDS011;2524;54.364;10.072;2023-03-23T16:51:50;15.57;;;4.10;;
5010;SDS011;2524;54.364;10.072;2023-03-23T16:54:16;12.57;;;4.57;;
5010;SDS011;2524;54.364;10.072;2023-03-23T16:56:42;13.30;;;4.43;;
5010;SDS011;2524;54.364;10.072;2023-03-23T16:59:11;8.80;;;3.20;;
5010;SDS011;2524;54.364;10.072;2023-03-23T17:01:37;9.60;;;3.57;;
5010;SDS011;2524;54.364;10.072;2023-03-23T17:04:03;6.27;;;2.80;;
5010;SDS011;2524;54.364;10.072;2023-03-23T17:06:28;5.40;;;2.60;;
5010;SDS011;2524;54.364;10.072;2023-03-23T17:08:54;14.00;;;4.20;;
5010;SDS011;2524;54.364;10.072;2023-03-23T17:11:20;6.90;;;2.70;;
5010;SDS011;2524;54.364;10.072;2023-03-23T17:13:45;19.43;;;4.23;;
5010;SDS011;2524;54.364;10.072;2023-03-23T17:16:12;11.77;;;4.00;;
5010;SDS011;2524;54.364;10.072;2023-03-23T17:18:37;11.60;;;3.40;;
5010;SDS011;2524;54.364;10.072;2023-03-23T17:21:03;11.23;;;3.77;;
5010;SDS011;2524;54.364;10.072;2023-03-23T17:23:29;10.93;;;3.83;;
5010;SDS011;2524;54.364;10.072;2023-03-23T17:25:54;9.33;;;3.77;;
5010;SDS011;2524;54.364;10.072;2023-03-23T17:28:20;7.43;;;2.80;;
5010;SDS011;2524;54.364;10.072;2023-03-23T17:30:46;6.73;;;2.90;;